WetterOnline ( https://www.wetteronline.de )

Wetter aktuell Waldmünchen

Aktuelles Wetter: Waldmünchen (499m)

6-stündlich | Neueste Meldungen
Ortszeit Temperatur Wetter
Di, 18.06. 14:00 26.5° C wolkenlos
Di, 18.06. 8:00 16.2° C wolkig
Di, 18.06. 2:00 13.1° C fast wolkenlos
Mo, 17.06. 20:00 20.0° C wolkig
Mo, 17.06. 14:00 23.7° C wolkig
Mo, 17.06. 8:00 16.8° C bedeckt
Mo, 17.06. 2:00 12.8° C bewölkt
So, 16.06. 20:00 19.8° C wolkenlos
Ortszeit Temperatur Wetter
Di, 18.06. 19:30 26.7° C wolkig
Di, 18.06. 19:20 26.7° C wolkig
Di, 18.06. 19:10 26.7° C bedeckt
Di, 18.06. 19:00 25.8° C bewölkt
Di, 18.06. 18:50 25.8° C bewölkt
Di, 18.06. 18:40 26.0° C wolkig
Di, 18.06. 18:30 27.0° C bewölkt
Di, 18.06. 18:00 26.6° C wolkig
Di, 18.06. 17:30 27.7° C leicht bewölkt
Di, 18.06. 17:00 27.7° C leicht bewölkt
Di, 18.06. 16:30 27.7° C bewölkt
Ortszeit Relative Feuchte Sichtweite
Di, 18.06. 14:00 49% 65 km
Di, 18.06. 8:00 88% 60 km
Di, 18.06. 2:00 97% 45 km
Mo, 17.06. 20:00 62% >70 km
Mo, 17.06. 14:00 53% 60 km
Mo, 17.06. 8:00 75% 65 km
Mo, 17.06. 2:00 93% 55 km
So, 16.06. 20:00 54% >70 km
Ortszeit Relative Feuchte Sichtweite
Di, 18.06. 19:30 46% >70 km
Di, 18.06. 19:20 46% -
Di, 18.06. 19:10 48% -
Di, 18.06. 19:00 49% 55 km
Di, 18.06. 18:50 49% -
Di, 18.06. 18:40 44% -
Di, 18.06. 18:30 40% 65 km
Di, 18.06. 18:00 42% >70 km
Di, 18.06. 17:30 40% >70 km
Di, 18.06. 17:00 42% >70 km
Di, 18.06. 16:30 45% 45 km
Ortszeit Niederschlagsmenge Niederschlagsart
Di, 18.06. 14:00 0.0 l/m2 in 6 Std. -
Di, 18.06. 8:00 0.1 l/m2 in 12 Std. -
Di, 18.06. 2:00 0.1 l/m2 in 6 Std. Regen
Mo, 17.06. 20:00 0.1 l/m2 in 12 Std. Regen
Mo, 17.06. 14:00 0.0 l/m2 in 6 Std. -
Mo, 17.06. 8:00 0.0 l/m2 in 12 Std. -
Mo, 17.06. 2:00 0.0 l/m2 in 6 Std. -
So, 16.06. 20:00 0.1 l/m2 in 12 Std. -
Ortszeit Niederschlagsmenge Niederschlagsart
Di, 18.06. 19:30 0.0 l/m2 in 30 Min -
Di, 18.06. 19:20 keine Meldung -
Di, 18.06. 19:10 keine Meldung -
Di, 18.06. 19:00 0.0 l/m2 in 1 Std. -
Di, 18.06. 18:50 keine Meldung -
Di, 18.06. 18:40 keine Meldung -
Di, 18.06. 18:30 0.0 l/m2 in 30 Min -
Di, 18.06. 18:00 0.0 l/m2 in 1 Std. -
Di, 18.06. 17:30 0.0 l/m2 in 30 Min -
Di, 18.06. 17:00 0.0 l/m2 in 1 Std. -
Di, 18.06. 16:30 0.0 l/m2 in 30 Min -
Ortszeit Stärke Spitze Richtung
km/h Bft. km/h Grad Sektor
Di, 18.06. 14:00 15 3 24 210° SW
Di, 18.06. 8:00 2 1 7 270° W
Di, 18.06. 2:00 4 1 11 70° O
Mo, 17.06. 20:00 13 3 44 240° SW
Mo, 17.06. 14:00 22 4 43 180° S
Mo, 17.06. 8:00 7 2 18 120° SO
Mo, 17.06. 2:00 4 1 18 60° NO
So, 16.06. 20:00 13 3 30 180° S
Ortszeit Stärke Spitze Richtung
km/h Bft. km/h Grad Sektor
Di, 18.06. 19:30 11 2 14 160° S
Di, 18.06. 19:20 11 2 - 160° S
Di, 18.06. 19:10 7 2 - 170° S
Di, 18.06. 19:00 11 2 20 190° S
Di, 18.06. 18:50 11 2 - 190° S
Di, 18.06. 18:40 11 2 - 190° S
Di, 18.06. 18:30 11 2 22 180° S
Di, 18.06. 18:00 14 3 25 170° S
Di, 18.06. 17:30 14 3 25 150° SO
Di, 18.06. 17:00 13 3 22 140° SO
Di, 18.06. 16:30 11 2 22 160° S
Ortszeit Untergrenze Bedeckung Gattung
total tief tief mittel hoch
Di, 18.06. 14:00 - 0/8 0/8 - - -
Di, 18.06. 8:00 7800 m 8/8 0/8 - - -
Di, 18.06. 2:00 9000 m 2/8 0/8 - - -
Mo, 17.06. 20:00 2700 m 7/8 4/8 - - -
Mo, 17.06. 14:00 1410 m 5/8 5/8 - - -
Mo, 17.06. 8:00 4200 m 8/8 8/8 - - -
Mo, 17.06. 2:00 1470 m 7/8 7/8 - - -
So, 16.06. 20:00 - 0/8 0/8 - - -
Ortszeit Bedeckungsgrad in Achtel und Wolkenuntergrenze
Di, 18.06. 19:30 3(6300m) 6(8100m) 7(10500m)
Di, 18.06. 19:20 3(6300m) 6(8100m) 7(10500m)
Di, 18.06. 19:10 8
Di, 18.06. 19:00 7(6900m)
Di, 18.06. 18:50 7(6900m)
Di, 18.06. 18:40 6
Di, 18.06. 18:30 7(6600m) 8(7200m)
Di, 18.06. 18:00 5(6300m) 6(7500m) 7(8400m)
Di, 18.06. 17:30 2(7200m) 3(10500m)
Di, 18.06. 17:00 2(6600m) 5(10500m)
Di, 18.06. 16:30 7(6900m) 8(7800m)
Ortszeit Luftdruck NN (hPa) Tendenz (hPa in 3 Std.)
Di, 18.06. 14:00 1013 - 1,4
Di, 18.06. 8:00 1017 + 0,3
Di, 18.06. 2:00 1018 + 0,8
Mo, 17.06. 20:00 1015 + 0,7
Mo, 17.06. 14:00 1013 - 0,3
Mo, 17.06. 8:00 1014 + 0,4
Mo, 17.06. 2:00 1014 + 1,1
So, 16.06. 20:00 1010 - 0,1
Ortszeit Luftdruck NN (hPa) Tendenz (hPa in 3 Std.)
Di, 18.06. 19:30 1011 - 1,3
Di, 18.06. 19:20 1011 keine Meldung
Di, 18.06. 19:10 1011 keine Meldung
Di, 18.06. 19:00 1011 - 1,1
Di, 18.06. 18:50 1011 keine Meldung
Di, 18.06. 18:40 1011 keine Meldung
Di, 18.06. 18:30 1011 - 1,4
Di, 18.06. 18:00 1011 - 1,7
Di, 18.06. 17:30 1011 - 1,4
Di, 18.06. 17:00 1012 - 1,2
Di, 18.06. 16:30 1012 - 1,4
Ortszeit Schneehöhe (cm)
Di, 18.06. 14:00 0
Di, 18.06. 8:00 0
Di, 18.06. 2:00 0
Mo, 17.06. 20:00 0
Mo, 17.06. 14:00 0
Mo, 17.06. 8:00 0
Mo, 17.06. 2:00 0
So, 16.06. 20:00 0
Ortszeit Schneehöhe (cm)
Di, 18.06. 19:30 0
Di, 18.06. 19:20 0
Di, 18.06. 19:10 -
Di, 18.06. 19:00 0
Di, 18.06. 18:50 0
Di, 18.06. 18:40 -
Di, 18.06. 18:30 0
Di, 18.06. 18:00 0
Di, 18.06. 17:30 0
Di, 18.06. 17:00 0
Di, 18.06. 16:30 0
Link zu dieser Seite / Seite empfehlen

Das Wetter in ...